ADDS METAR Data INFO
IDs: Format: Raw Decoded Include TAF

Data at: 0144 UTC 17 Oct 2017

KRGA 170135Z AUTO 00000KT 10SM CLR 09/05 A3031 RMK AO2
KRGA 170115Z AUTO 00000KT 10SM CLR 08/05 A3030 RMK AO2
KRGA 170055Z AUTO 00000KT 10SM CLR 10/04 A3030 RMK AO2
KRGA 170035Z AUTO 00000KT 10SM CLR 11/04 A3030 RMK AO2
KRGA 170015Z AUTO 00000KT 10SM CLR 11/04 A3029 RMK AO2
KRGA 162355Z AUTO 00000KT 10SM CLR 11/04 A3029 RMK AO2
KRGA 162335Z AUTO 00000KT 10SM CLR 12/04 A3028 RMK AO2
KRGA 162315Z AUTO 00000KT 10SM CLR 12/03 A3028 RMK AO2
KRGA 162255Z AUTO 00000KT 10SM SCT055 13/03 A3029 RMK AO2
KRGA 162235Z AUTO 36003KT 10SM SCT055 13/03 A3028 RMK AO2
KRGA 162215Z AUTO 02005KT 10SM CLR 14/03 A3028 RMK AO2
KRGA 162155Z AUTO 01004KT 10SM SCT050 15/04 A3028 RMK AO2
KRGA 162135Z AUTO 05006KT 10SM BKN050 15/03 A3028 RMK AO2
KRGA 162115Z AUTO 35004KT 10SM SCT050 15/03 A3027 RMK AO2
KRGA 162055Z AUTO 01007KT 305V045 10SM BKN050 16/03 A3028 RMK AO2
KRGA 162035Z AUTO 36004KT 10SM BKN050 16/04 A3028 RMK AO2
KRGA 162015Z AUTO 33004KT 10SM SCT050 16/03 A3028 RMK AO2
KRGA 161955Z AUTO 36008KT 10SM SCT050 16/04 A3028 RMK AO2
KRGA 161935Z AUTO 02004KT 10SM SCT047 SCT050 14/03 A3028 RMK AO2
KRGA 161915Z AUTO 02004KT 10SM SCT047 SCT050 14/04 A3028 RMK AO2
KRGA 161855Z AUTO 02003KT 10SM SCT045 SCT050 14/04 A3029 RMK AO2
KRGA 161835Z AUTO 32005KT 10SM SCT047 BKN060 15/05 A3030 RMK AO2
KRGA 161815Z AUTO 31008KT 10SM BKN048 15/05 A3031 RMK AO2
KRGA 161755Z AUTO 01007KT 10SM BKN049 15/05 A3031 RMK AO2
KRGA 161735Z AUTO 03005KT 10SM BKN045 14/05 A3032 RMK AO2
KRGA 161715Z AUTO 04007KT 355V055 10SM BKN043 14/05 A3032 RMK AO2
KRGA 161655Z AUTO 01009KT 335V035 10SM SCT039 BKN045 14/05 A3033 RMK AO2
KRGA 161635Z AUTO 35006KT 10SM SCT039 SCT045 13/05 A3033 RMK AO2
KRGA 161615Z AUTO 04005KT 10SM SCT034 12/05 A3033 RMK AO2
KRGA 161555Z AUTO 02005KT 10SM BKN032 13/06 A3032 RMK AO2
KRGA 161535Z AUTO 36007KT 10SM BKN030 12/06 A3032 RMK AO2
KRGA 161515Z AUTO 01007KT 10SM BKN023 BKN028 12/06 A3032 RMK AO2
KRGA 161455Z AUTO 01005KT 10SM BKN021 BKN026 12/07 A3032 RMK AO2
KRGA 161435Z AUTO 34005KT 10SM OVC017 11/07 A3032 RMK AO2
KRGA 161415Z AUTO 36005KT 10SM BKN017 11/07 A3031 RMK AO2
KRGA 161355Z AUTO 36008KT 10SM SCT011 10/07 A3030 RMK AO2
KRGA 161335Z AUTO 36005KT 10SM SCT011 09/07 A3030 RMK AO2
KRGA 161315Z AUTO 34005KT 10SM CLR 09/07 A3030 RMK AO2
KRGA 161255Z AUTO 34004KT 10SM CLR 09/06 A3029 RMK AO2
KRGA 161235Z AUTO 33004KT 10SM CLR 08/06 A3028 RMK AO2
KRGA 161215Z AUTO 32003KT 10SM CLR 08/06 A3027 RMK AO2
KRGA 161155Z AUTO 34003KT 10SM CLR 08/06 A3026 RMK AO2
KRGA 161135Z AUTO 34003KT 10SM CLR 09/06 A3025 RMK AO2
KRGA 161115Z AUTO 34004KT 10SM SCT040 09/06 A3025 RMK AO2
KRGA 161055Z AUTO 35004KT 10SM OVC040 10/07 A3024 RMK AO2
KRGA 161035Z AUTO 33005KT 10SM OVC040 10/07 A3024 RMK AO2
KRGA 161015Z AUTO 33006KT 10SM OVC040 10/07 A3023 RMK AO2
KRGA 160955Z AUTO 32005KT 10SM OVC040 10/06 A3023 RMK AO2
KRGA 160935Z AUTO 33007KT 10SM OVC040 10/06 A3023 RMK AO2
KRGA 160915Z AUTO 32006KT 10SM OVC040 10/06 A3022 RMK AO2
KRGA 160855Z AUTO 32005KT 10SM OVC040 10/06 A3022 RMK AO2
KRGA 160835Z AUTO 32006KT 10SM OVC040 10/06 A3022 RMK AO2
KRGA 160815Z AUTO 31005KT 10SM OVC040 10/06 A3022 RMK AO2
KRGA 160755Z AUTO 31005KT 10SM OVC040 10/06 A3022 RMK AO2
KRGA 160735Z AUTO 31003KT 10SM OVC038 10/07 A3022 RMK AO2
KRGA 160715Z AUTO 32004KT 10SM OVC038 10/06 A3022 RMK AO2
KRGA 160655Z AUTO 31006KT 10SM OVC038 10/07 A3022 RMK AO2
KRGA 160635Z AUTO 31005KT 10SM OVC038 10/07 A3021 RMK AO2
KRGA 160615Z AUTO 30004KT 10SM SCT032 OVC038 11/07 A3021 RMK AO2
KRGA 160555Z AUTO 31004KT 10SM OVC033 11/06 A3022 RMK AO2
KRGA 160535Z AUTO 31005KT 10SM OVC033 11/07 A3022 RMK AO2
KRGA 160515Z AUTO 32004KT 10SM BKN027 OVC033 11/07 A3022 RMK AO2
KRGA 160455Z AUTO 33003KT 10SM BKN027 OVC033 11/07 A3022 RMK AO2
KRGA 160435Z AUTO 32004KT 10SM OVC030 11/07 A3022 RMK AO2
KRGA 160415Z AUTO 33005KT 10SM OVC028 11/07 A3022 RMK AO2
KRGA 160355Z AUTO 33003KT 10SM OVC026 11/07 A3022 RMK AO2
KRGA 160335Z AUTO 35005KT 10SM OVC026 11/07 A3022 RMK AO2
KRGA 160315Z AUTO 35005KT 10SM OVC024 11/07 A3021 RMK AO2
KRGA 160255Z AUTO 35008KT 10SM OVC022 11/07 A3020 RMK AO2
KRGA 160235Z AUTO 33007KT 10SM OVC022 12/07 A3019 RMK AO2
KRGA 160215Z AUTO 34011G17KT 10SM OVC022 12/07 A3018 RMK AO2
KRGA 160155Z AUTO 33010KT 10SM SCT017 OVC024 12/08 A3017 RMK AO2
KRGA 160135Z AUTO 34011G17KT 10SM BKN017 OVC022 12/09 A3015 RMK AO2
KRGA 160115Z AUTO 32012KT 10SM BKN015 OVC022 13/10 A3014 RMK AO2
KRGA 160055Z AUTO 32010KT 10SM BKN015 OVC022 13/11 A3012 RMK AO2
KRGA 160035Z AUTO 31010KT 10SM BKN015 OVC020 14/12 A3012 RMK AO2
KRGA 160015Z AUTO 31011G17KT 10SM OVC011 14/12 A3010 RMK AO2
KRGA 152355Z AUTO 31013G18KT 10SM OVC011 15/13 A3009 RMK AO2
KRGA 152335Z AUTO 31007KT 10SM OVC013 15/13 A3008 RMK AO2
KRGA 152315Z AUTO 31006KT 10SM SCT011 BKN045 OVC050 15/13 A3006 RMK AO2
KRGA 152255Z AUTO 32008KT 10SM SCT010 BKN032 OVC070 15/13 A3005 RMK AO2
KRGA 152235Z AUTO 32009G14KT 3SM SCT007 OVC015 15/14 A3005 RMK AO2
KRGA 152215Z AUTO 32014G19KT 10SM BKN018 OVC024 17/14 A3005 RMK AO2
KRGA 152155Z AUTO 32022G30KT 10SM SCT018 SCT022 OVC042 17/14 A3002 RMK AO2
KRGA 152135Z AUTO 33016G30KT 10SM SCT028 SCT035 OVC047 19/15 A3000 RMK AO2
KRGA 152115Z AUTO 29010KT 10SM SCT024 BKN049 OVC060 23/17 A2997 RMK AO2
KRGA 152055Z AUTO 27006G15KT 10SM SCT027 BKN034 BKN100 24/19 A2996 RMK AO2
KRGA 152035Z AUTO 27007KT 10SM BKN025 BKN032 OVC038 24/19 A2997 RMK AO2
KRGA 152015Z AUTO 26007KT 10SM BKN027 OVC034 24/19 A2997 RMK AO2
KRGA 151955Z AUTO 26012G17KT 205V295 10SM SCT025 BKN031 OVC050 25/19 A2997 RMK AO2
KRGA 151935Z AUTO 25009KT 10SM OVC027 24/19 A2998 RMK AO2
KRGA 151915Z AUTO 25009G20KT 7SM BKN027 BKN060 OVC095 24/19 A2999 RMK AO2
KRGA 151855Z AUTO 26007KT 10SM SCT025 SCT034 BKN060 23/20 A2999 RMK AO2
KRGA 151835Z AUTO 24006KT 10SM SCT027 OVC036 23/20 A3000 RMK AO2
KRGA 151815Z AUTO 28006KT 7SM BKN030 OVC037 23/19 A3002 RMK AO2
KRGA 151755Z AUTO 26006KT 10SM BKN030 OVC036 23/19 A3002 RMK AO2
KRGA 151735Z AUTO 26007G14KT 7SM OVC030 23/18 A3003 RMK AO2
KRGA 151715Z AUTO 26010G18KT 10SM SCT030 BKN047 OVC075 24/18 A3003 RMK AO2
KRGA 151655Z AUTO 21012G18KT 7SM SCT024 SCT045 BKN070 24/19 A3003 RMK AO2
KRGA 151635Z AUTO 22012G19KT 10SM SCT023 BKN060 BKN070 24/19 A3004 RMK AO2
KRGA 151615Z AUTO 22010G21KT 10SM BKN021 BKN027 BKN095 23/18 A3005 RMK AO2
KRGA 151555Z AUTO 22013G21KT 7SM BKN019 23/18 A3006 RMK AO2
KRGA 151535Z AUTO 23014G19KT 7SM BKN017 23/18 A3006 RMK AO2
KRGA 151515Z AUTO 21014G18KT 7SM OVC017 22/18 A3006 RMK AO2
KRGA 151455Z AUTO 22013G20KT 10SM OVC015 21/18 A3007 RMK AO2
KRGA 151435Z AUTO 22007G16KT 10SM OVC015 22/18 A3008 RMK AO2
KRGA 151415Z AUTO 22011G14KT 10SM OVC015 21/17 A3008 RMK AO2
KRGA 151355Z AUTO 21010G20KT 7SM OVC015 20/17 A3008 RMK AO2